Aérodrome :
LOGIN :

S'inscrire | Disclaimer

   EN    FR    IT 

 










Légende :    VFR   VFR Marginal   IFR   IFR Intensif   IFR Très Intensif
Visi : 
Plafond : 
>= 8 km
>= 3000ft
5 à 8 km
1000 à 3000 ft
1500m à 5 km
500 à 1000 ft
800 à 1500m
200 à 500 ft
< 800m
< 200 ft
Symboles :   Orages  Brouillard  Fortes neiges  Fortes précipitations  Vent > 20 kt
SIGMETs :   Divers  Orages  Givrage  Turbulence  Onde Orograph.  Cendres Volcan.







- Altitude de l'aérodrome : 1276 ft
- Code IATA : STR


EDDS - Stuttgart

DERNIER METAR :
  • 211820Z 28012KT 230V300 CAVOK 14/09 Q1018 NOSIG

METARs EXPIRÉS :
  • 211750Z 29012KT 9999 FEW011 BKN052 BKN110 15/08 Q1017 NOSIG
  • 211720Z 28018KT 9999 -RA FEW011 BKN052 15/08 Q1016 BECMG 27012KT
  • 211650Z 29024KT 9999 FEW011 BKN066 BKN097 15/10 Q1015 BECMG 29015G25KT
  • 211620Z 31027G39KT 9999 FEW014 SCT017 BKN099 16/12 Q1014 BECMG 29015G25KT
  • 211550Z 28019G31KT 250V330 9999 FEW015 SCT064 BKN100 22/12 Q1012 NOSIG
  • 211520Z 24008G18KT 190V310 9999 FEW046 SCT057 BKN120 24/11 Q1011 NOSIG

TAF TAF EDDS
Valide du 21 à 18h jusqu'au 22 à 18h UTC


211700Z 2118/2218 27015G25KT 9999 SCT040
BECMG 2118/2120 25010KT
BECMG 2120/2122 25005KT
BECMG 2209/2211 26010KT
Pas de NOTAMs connus pour ce terrain.



MET'MAP, la Météo Aéronautique d'un coup d'oeil ! - Copyright ORBIFLY Décembre 2007 - Disclaimer

ORBIFLY MET'MAP TEAM :

Programmation & Développement : Alexandra Zaïnal
Conception & Développement : Baudouin d'Aumeries
Co-Programmation & Développement : Marc-Olivier Méhu
Soutien technique & logistique : Manuel Goepfert

Contact : metmap@orbifly.com




SOURCES & CREDITS :

   NOAA